sensor_id;sensor_type;location;lat;lon;timestamp;temperature;humidity
52565;DHT22;38460;53.106;7.004;2023-08-08T00:00:51;13.00;99.90
52565;DHT22;38460;53.106;7.004;2023-08-08T00:03:17;13.00;99.90
52565;DHT22;38460;53.106;7.004;2023-08-08T00:05:42;13.00;99.90
52565;DHT22;38460;53.106;7.004;2023-08-08T00:08:08;13.00;99.90
52565;DHT22;38460;53.106;7.004;2023-08-08T00:10:34;13.00;99.90
52565;DHT22;38460;53.106;7.004;2023-08-08T00:12:59;13.00;99.90
52565;DHT22;38460;53.106;7.004;2023-08-08T00:15:25;13.00;99.90
52565;DHT22;38460;53.106;7.004;2023-08-08T00:17:51;13.00;99.90
52565;DHT22;38460;53.106;7.004;2023-08-08T00:20:17;13.00;99.90
52565;DHT22;38460;53.106;7.004;2023-08-08T00:22:42;13.00;99.90
52565;DHT22;38460;53.106;7.004;2023-08-08T00:25:08;13.00;99.90
52565;DHT22;38460;53.106;7.004;2023-08-08T00:27:34;13.00;99.90
52565;DHT22;38460;53.106;7.004;2023-08-08T00:30:01;13.00;99.90
52565;DHT22;38460;53.106;7.004;2023-08-08T00:32:26;13.00;99.90
52565;DHT22;38460;53.106;7.004;2023-08-08T00:34:52;13.00;99.90
52565;DHT22;38460;53.106;7.004;2023-08-08T00:37:18;13.00;99.90
52565;DHT22;38460;53.106;7.004;2023-08-08T00:39:44;13.00;99.90
52565;DHT22;38460;53.106;7.004;2023-08-08T00:42:12;13.00;99.90
52565;DHT22;38460;53.106;7.004;2023-08-08T00:44:39;13.00;99.90
52565;DHT22;38460;53.106;7.004;2023-08-08T00:47:07;13.00;99.90
52565;DHT22;38460;53.106;7.004;2023-08-08T00:49:33;13.00;99.90
52565;DHT22;38460;53.106;7.004;2023-08-08T00:51:59;13.00;99.90
52565;DHT22;38460;53.106;7.004;2023-08-08T00:54:25;13.00;99.90
52565;DHT22;38460;53.106;7.004;2023-08-08T00:56:51;12.90;99.90
52565;DHT22;38460;53.106;7.004;2023-08-08T00:59:18;12.90;99.90
52565;DHT22;38460;53.106;7.004;2023-08-08T01:01:44;12.90;99.90
52565;DHT22;38460;53.106;7.004;2023-08-08T01:04:11;12.90;99.90
52565;DHT22;38460;53.106;7.004;2023-08-08T01:07:03;12.90;99.90
52565;DHT22;38460;53.106;7.004;2023-08-08T01:11:59;12.90;99.90
52565;DHT22;38460;53.106;7.004;2023-08-08T01:14:27;12.90;99.90
52565;DHT22;38460;53.106;7.004;2023-08-08T01:16:53;12.90;99.90
52565;DHT22;38460;53.106;7.004;2023-08-08T01:19:28;12.90;99.90
52565;DHT22;38460;53.106;7.004;2023-08-08T01:21:58;12.90;99.90
52565;DHT22;38460;53.106;7.004;2023-08-08T01:24:26;12.90;99.90
52565;DHT22;38460;53.106;7.004;2023-08-08T01:27:01;12.90;99.90
52565;DHT22;38460;53.106;7.004;2023-08-08T01:29:27;12.90;99.90
52565;DHT22;38460;53.106;7.004;2023-08-08T01:31:53;12.90;99.90
52565;DHT22;38460;53.106;7.004;2023-08-08T01:34:20;12.90;99.90
52565;DHT22;38460;53.106;7.004;2023-08-08T01:36:56;12.90;99.90
52565;DHT22;38460;53.106;7.004;2023-08-08T01:39:26;12.90;99.90
52565;DHT22;38460;53.106;7.004;2023-08-08T01:41:56;12.90;99.90
52565;DHT22;38460;53.106;7.004;2023-08-08T01:44:24;12.80;99.90
52565;DHT22;38460;53.106;7.004;2023-08-08T01:46:51;12.80;99.90
52565;DHT22;38460;53.106;7.004;2023-08-08T01:49:17;12.80;99.90
52565;DHT22;38460;53.106;7.004;2023-08-08T01:51:43;12.80;99.90
52565;DHT22;38460;53.106;7.004;2023-08-08T01:54:08;12.80;99.90
52565;DHT22;38460;53.106;7.004;2023-08-08T01:56:34;12.80;99.90
52565;DHT22;38460;53.106;7.004;2023-08-08T01:59:00;13.20;99.90
52565;DHT22;38460;53.106;7.004;2023-08-08T02:01:26;12.80;99.90
52565;DHT22;38460;53.106;7.004;2023-08-08T02:03:52;12.80;99.90
52565;DHT22;38460;53.106;7.004;2023-08-08T02:06:17;12.70;99.90
52565;DHT22;38460;53.106;7.004;2023-08-08T02:08:44;12.80;99.90
52565;DHT22;38460;53.106;7.004;2023-08-08T02:11:09;12.80;99.90
52565;DHT22;38460;53.106;7.004;2023-08-08T02:13:35;12.80;99.90
52565;DHT22;38460;53.106;7.004;2023-08-08T02:16:01;12.80;99.90
52565;DHT22;38460;53.106;7.004;2023-08-08T02:18:27;12.80;99.90
52565;DHT22;38460;53.106;7.004;2023-08-08T02:20:52;12.80;99.90
52565;DHT22;38460;53.106;7.004;2023-08-08T02:23:18;12.80;99.90
52565;DHT22;38460;53.106;7.004;2023-08-08T02:25:44;12.80;99.90
52565;DHT22;38460;53.106;7.004;2023-08-08T02:28:09;12.80;99.90
52565;DHT22;38460;53.106;7.004;2023-08-08T02:30:35;12.80;99.90
52565;DHT22;38460;53.106;7.004;2023-08-08T02:33:01;12.80;99.90
52565;DHT22;38460;53.106;7.004;2023-08-08T02:35:27;12.80;99.90
52565;DHT22;38460;53.106;7.004;2023-08-08T02:37:52;12.90;99.90
52565;DHT22;38460;53.106;7.004;2023-08-08T02:40:18;12.90;99.90
52565;DHT22;38460;53.106;7.004;2023-08-08T02:42:44;12.90;99.90
52565;DHT22;38460;53.106;7.004;2023-08-08T02:45:09;12.90;99.90
52565;DHT22;38460;53.106;7.004;2023-08-08T02:47:35;12.90;99.90
52565;DHT22;38460;53.106;7.004;2023-08-08T02:50:01;12.90;99.90
52565;DHT22;38460;53.106;7.004;2023-08-08T02:52:27;13.00;99.90
52565;DHT22;38460;53.106;7.004;2023-08-08T02:54:52;13.00;99.90
52565;DHT22;38460;53.106;7.004;2023-08-08T02:57:18;13.00;99.90
52565;DHT22;38460;53.106;7.004;2023-08-08T02:59:44;13.00;99.90
52565;DHT22;38460;53.106;7.004;2023-08-08T03:02:09;13.00;99.90
52565;DHT22;38460;53.106;7.004;2023-08-08T03:04:35;13.10;99.90
52565;DHT22;38460;53.106;7.004;2023-08-08T03:07:01;13.10;99.90
52565;DHT22;38460;53.106;7.004;2023-08-08T03:09:30;13.10;99.90
52565;DHT22;38460;53.106;7.004;2023-08-08T03:11:56;13.10;99.90
52565;DHT22;38460;53.106;7.004;2023-08-08T03:14:21;13.10;99.90
52565;DHT22;38460;53.106;7.004;2023-08-08T03:16:47;13.10;99.90
52565;DHT22;38460;53.106;7.004;2023-08-08T03:19:13;13.10;99.90
52565;DHT22;38460;53.106;7.004;2023-08-08T03:21:38;13.10;99.90
52565;DHT22;38460;53.106;7.004;2023-08-08T03:24:04;13.10;99.90
52565;DHT22;38460;53.106;7.004;2023-08-08T03:26:30;13.10;99.90
52565;DHT22;38460;53.106;7.004;2023-08-08T03:28:56;13.10;99.90
52565;DHT22;38460;53.106;7.004;2023-08-08T03:31:22;13.10;99.90
52565;DHT22;38460;53.106;7.004;2023-08-08T03:33:47;13.10;99.90
52565;DHT22;38460;53.106;7.004;2023-08-08T03:36:14;13.10;99.90
52565;DHT22;38460;53.106;7.004;2023-08-08T03:38:40;13.10;99.90
52565;DHT22;38460;53.106;7.004;2023-08-08T03:41:09;13.10;99.90
52565;DHT22;38460;53.106;7.004;2023-08-08T03:43:35;13.10;99.90
52565;DHT22;38460;53.106;7.004;2023-08-08T03:46:01;13.00;99.90
52565;DHT22;38460;53.106;7.004;2023-08-08T03:48:26;13.10;99.90
52565;DHT22;38460;53.106;7.004;2023-08-08T03:50:52;13.00;99.90
52565;DHT22;38460;53.106;7.004;2023-08-08T03:53:18;13.00;99.90
52565;DHT22;38460;53.106;7.004;2023-08-08T03:55:43;13.00;99.90
52565;DHT22;38460;53.106;7.004;2023-08-08T03:58:09;13.00;99.90
52565;DHT22;38460;53.106;7.004;2023-08-08T04:00:35;13.00;99.90
52565;DHT22;38460;53.106;7.004;2023-08-08T04:03:00;13.00;99.90
52565;DHT22;38460;53.106;7.004;2023-08-08T04:05:26;13.00;99.90
52565;DHT22;38460;53.106;7.004;2023-08-08T04:07:52;13.00;99.90
52565;DHT22;38460;53.106;7.004;2023-08-08T04:10:18;12.90;99.90
52565;DHT22;38460;53.106;7.004;2023-08-08T04:12:43;12.90;99.90
52565;DHT22;38460;53.106;7.004;2023-08-08T04:15:09;12.90;99.90
52565;DHT22;38460;53.106;7.004;2023-08-08T04:17:35;12.90;99.90
52565;DHT22;38460;53.106;7.004;2023-08-08T04:20:02;12.90;99.90
52565;DHT22;38460;53.106;7.004;2023-08-08T04:22:31;12.90;99.90
52565;DHT22;38460;53.106;7.004;2023-08-08T04:24:56;12.80;99.90
52565;DHT22;38460;53.106;7.004;2023-08-08T04:27:22;12.80;99.90
52565;DHT22;38460;53.106;7.004;2023-08-08T04:29:48;12.80;99.90
52565;DHT22;38460;53.106;7.004;2023-08-08T04:32:14;12.80;99.90
52565;DHT22;38460;53.106;7.004;2023-08-08T04:34:39;12.80;99.90
52565;DHT22;38460;53.106;7.004;2023-08-08T04:37:05;12.90;99.90
52565;DHT22;38460;53.106;7.004;2023-08-08T04:39:31;12.90;99.90
52565;DHT22;38460;53.106;7.004;2023-08-08T04:41:57;12.80;99.90
52565;DHT22;38460;53.106;7.004;2023-08-08T04:44:22;12.80;99.90
52565;DHT22;38460;53.106;7.004;2023-08-08T04:46:48;12.90;99.90
52565;DHT22;38460;53.106;7.004;2023-08-08T04:49:14;12.90;99.90
52565;DHT22;38460;53.106;7.004;2023-08-08T04:51:39;12.90;99.90
52565;DHT22;38460;53.106;7.004;2023-08-08T04:54:05;12.90;99.90
52565;DHT22;38460;53.106;7.004;2023-08-08T04:56:31;12.90;99.90
52565;DHT22;38460;53.106;7.004;2023-08-08T04:58:56;12.90;99.90
52565;DHT22;38460;53.106;7.004;2023-08-08T05:01:22;13.00;99.90
52565;DHT22;38460;53.106;7.004;2023-08-08T05:03:48;13.00;99.90
52565;DHT22;38460;53.106;7.004;2023-08-08T05:06:14;13.00;99.90
52565;DHT22;38460;53.106;7.004;2023-08-08T05:08:40;13.10;99.90
52565;DHT22;38460;53.106;7.004;2023-08-08T05:11:05;13.10;99.90
52565;DHT22;38460;53.106;7.004;2023-08-08T05:13:31;13.20;99.90
52565;DHT22;38460;53.106;7.004;2023-08-08T05:15:57;13.20;99.90
52565;DHT22;38460;53.106;7.004;2023-08-08T05:18:22;13.30;99.90
52565;DHT22;38460;53.106;7.004;2023-08-08T05:20:48;13.30;99.90
52565;DHT22;38460;53.106;7.004;2023-08-08T05:23:14;13.30;99.90
52565;DHT22;38460;53.106;7.004;2023-08-08T05:25:40;13.30;99.90
52565;DHT22;38460;53.106;7.004;2023-08-08T05:28:06;13.30;99.90
52565;DHT22;38460;53.106;7.004;2023-08-08T05:30:31;13.40;99.90
52565;DHT22;38460;53.106;7.004;2023-08-08T05:32:57;13.40;99.90
52565;DHT22;38460;53.106;7.004;2023-08-08T05:35:23;13.40;99.90
52565;DHT22;38460;53.106;7.004;2023-08-08T05:37:48;13.40;99.90
52565;DHT22;38460;53.106;7.004;2023-08-08T05:40:14;13.40;99.90
52565;DHT22;38460;53.106;7.004;2023-08-08T05:42:40;13.40;99.90
52565;DHT22;38460;53.106;7.004;2023-08-08T05:45:06;13.50;99.90
52565;DHT22;38460;53.106;7.004;2023-08-08T05:47:32;13.50;99.90
52565;DHT22;38460;53.106;7.004;2023-08-08T05:49:59;13.50;99.90
52565;DHT22;38460;53.106;7.004;2023-08-08T05:52:24;13.50;99.90
52565;DHT22;38460;53.106;7.004;2023-08-08T05:54:50;13.50;99.90
52565;DHT22;38460;53.106;7.004;2023-08-08T05:57:16;13.60;99.90
52565;DHT22;38460;53.106;7.004;2023-08-08T05:59:41;13.60;99.90
52565;DHT22;38460;53.106;7.004;2023-08-08T06:02:10;13.70;99.90
52565;DHT22;38460;53.106;7.004;2023-08-08T06:04:36;13.70;99.90
52565;DHT22;38460;53.106;7.004;2023-08-08T06:07:02;13.70;99.90
52565;DHT22;38460;53.106;7.004;2023-08-08T06:09:27;13.80;99.90
52565;DHT22;38460;53.106;7.004;2023-08-08T06:11:53;13.80;99.90
52565;DHT22;38460;53.106;7.004;2023-08-08T06:14:19;13.80;99.90
52565;DHT22;38460;53.106;7.004;2023-08-08T06:16:45;13.90;99.90
52565;DHT22;38460;53.106;7.004;2023-08-08T06:19:12;13.90;99.90
52565;DHT22;38460;53.106;7.004;2023-08-08T06:21:40;14.00;99.90
52565;DHT22;38460;53.106;7.004;2023-08-08T06:24:06;14.00;99.90
52565;DHT22;38460;53.106;7.004;2023-08-08T06:26:32;14.10;99.90
52565;DHT22;38460;53.106;7.004;2023-08-08T06:28:57;14.10;99.90
52565;DHT22;38460;53.106;7.004;2023-08-08T06:31:23;14.10;99.90
52565;DHT22;38460;53.106;7.004;2023-08-08T06:33:49;14.20;99.90
52565;DHT22;38460;53.106;7.004;2023-08-08T06:36:15;14.30;99.90
52565;DHT22;38460;53.106;7.004;2023-08-08T06:38:40;14.30;99.90
52565;DHT22;38460;53.106;7.004;2023-08-08T06:41:06;14.40;99.90
52565;DHT22;38460;53.106;7.004;2023-08-08T06:43:32;14.40;99.90
52565;DHT22;38460;53.106;7.004;2023-08-08T06:45:57;14.50;99.90
52565;DHT22;38460;53.106;7.004;2023-08-08T06:48:24;14.50;99.90
52565;DHT22;38460;53.106;7.004;2023-08-08T06:50:49;14.60;99.90
52565;DHT22;38460;53.106;7.004;2023-08-08T06:53:15;14.60;99.90
52565;DHT22;38460;53.106;7.004;2023-08-08T06:55:41;14.70;99.90
52565;DHT22;38460;53.106;7.004;2023-08-08T06:58:07;14.80;99.90
52565;DHT22;38460;53.106;7.004;2023-08-08T07:00:33;14.80;99.90
52565;DHT22;38460;53.106;7.004;2023-08-08T07:02:58;14.90;99.90
52565;DHT22;38460;53.106;7.004;2023-08-08T07:05:24;14.90;99.90
52565;DHT22;38460;53.106;7.004;2023-08-08T07:07:51;15.00;99.90
52565;DHT22;38460;53.106;7.004;2023-08-08T07:10:18;15.00;99.90
52565;DHT22;38460;53.106;7.004;2023-08-08T07:12:44;15.10;99.90
52565;DHT22;38460;53.106;7.004;2023-08-08T07:15:10;15.10;99.90
52565;DHT22;38460;53.106;7.004;2023-08-08T07:17:36;15.20;99.90
52565;DHT22;38460;53.106;7.004;2023-08-08T07:20:01;15.20;99.90
52565;DHT22;38460;53.106;7.004;2023-08-08T07:22:27;15.30;99.90
52565;DHT22;38460;53.106;7.004;2023-08-08T07:24:53;15.30;99.90
52565;DHT22;38460;53.106;7.004;2023-08-08T07:27:19;15.40;99.90
52565;DHT22;38460;53.106;7.004;2023-08-08T07:29:45;15.40;99.90
52565;DHT22;38460;53.106;7.004;2023-08-08T07:32:11;15.40;99.90
52565;DHT22;38460;53.106;7.004;2023-08-08T07:34:36;15.50;99.90
52565;DHT22;38460;53.106;7.004;2023-08-08T07:37:02;15.60;99.90
52565;DHT22;38460;53.106;7.004;2023-08-08T07:39:28;15.60;99.90
52565;DHT22;38460;53.106;7.004;2023-08-08T07:41:54;15.70;99.90
52565;DHT22;38460;53.106;7.004;2023-08-08T07:44:20;15.80;99.90
52565;DHT22;38460;53.106;7.004;2023-08-08T07:46:46;15.80;99.90
52565;DHT22;38460;53.106;7.004;2023-08-08T07:49:13;15.80;99.90
52565;DHT22;38460;53.106;7.004;2023-08-08T07:51:38;15.90;99.90
52565;DHT22;38460;53.106;7.004;2023-08-08T07:54:04;15.90;99.90
52565;DHT22;38460;53.106;7.004;2023-08-08T07:56:34;16.00;99.90
52565;DHT22;38460;53.106;7.004;2023-08-08T07:59:00;16.00;99.90
52565;DHT22;38460;53.106;7.004;2023-08-08T08:01:27;16.00;99.90
52565;DHT22;38460;53.106;7.004;2023-08-08T08:03:53;16.10;99.90
52565;DHT22;38460;53.106;7.004;2023-08-08T08:06:19;16.20;99.90
52565;DHT22;38460;53.106;7.004;2023-08-08T08:08:45;16.20;99.90
52565;DHT22;38460;53.106;7.004;2023-08-08T08:11:10;16.30;99.90
52565;DHT22;38460;53.106;7.004;2023-08-08T08:13:38;16.30;99.90
52565;DHT22;38460;53.106;7.004;2023-08-08T08:16:05;16.30;99.90
52565;DHT22;38460;53.106;7.004;2023-08-08T08:18:31;16.30;99.90
52565;DHT22;38460;53.106;7.004;2023-08-08T08:20:57;16.30;99.90
52565;DHT22;38460;53.106;7.004;2023-08-08T08:23:23;16.30;99.90
52565;DHT22;38460;53.106;7.004;2023-08-08T08:25:49;16.30;99.90
52565;DHT22;38460;53.106;7.004;2023-08-08T08:28:16;16.40;99.90
52565;DHT22;38460;53.106;7.004;2023-08-08T08:30:41;16.40;99.90
52565;DHT22;38460;53.106;7.004;2023-08-08T08:33:07;16.40;99.90
52565;DHT22;38460;53.106;7.004;2023-08-08T08:35:36;16.50;99.90
52565;DHT22;38460;53.106;7.004;2023-08-08T08:38:03;16.50;99.90
52565;DHT22;38460;53.106;7.004;2023-08-08T08:40:30;16.60;99.90
52565;DHT22;38460;53.106;7.004;2023-08-08T08:42:59;16.60;99.90
52565;DHT22;38460;53.106;7.004;2023-08-08T08:45:25;16.60;99.90
52565;DHT22;38460;53.106;7.004;2023-08-08T08:47:53;16.70;99.90
52565;DHT22;38460;53.106;7.004;2023-08-08T08:50:21;16.80;99.90
52565;DHT22;38460;53.106;7.004;2023-08-08T08:52:48;16.80;99.90
52565;DHT22;38460;53.106;7.004;2023-08-08T08:55:14;17.00;99.90
52565;DHT22;38460;53.106;7.004;2023-08-08T08:57:40;17.00;99.90
52565;DHT22;38460;53.106;7.004;2023-08-08T09:00:07;17.00;99.90
52565;DHT22;38460;53.106;7.004;2023-08-08T09:02:33;17.00;99.90
52565;DHT22;38460;53.106;7.004;2023-08-08T09:05:00;16.90;99.90
52565;DHT22;38460;53.106;7.004;2023-08-08T09:07:29;16.90;99.90
52565;DHT22;38460;53.106;7.004;2023-08-08T09:09:57;16.90;99.90
52565;DHT22;38460;53.106;7.004;2023-08-08T09:12:22;17.00;99.90
52565;DHT22;38460;53.106;7.004;2023-08-08T09:14:55;17.00;99.90
52565;DHT22;38460;53.106;7.004;2023-08-08T09:17:22;17.00;99.90
52565;DHT22;38460;53.106;7.004;2023-08-08T09:19:50;17.00;99.90
52565;DHT22;38460;53.106;7.004;2023-08-08T09:22:15;17.00;99.90
52565;DHT22;38460;53.106;7.004;2023-08-08T09:24:42;17.00;99.90
52565;DHT22;38460;53.106;7.004;2023-08-08T09:27:08;17.00;99.90
52565;DHT22;38460;53.106;7.004;2023-08-08T09:29:35;17.00;99.90
52565;DHT22;38460;53.106;7.004;2023-08-08T09:32:06;17.10;99.90
52565;DHT22;38460;53.106;7.004;2023-08-08T09:34:32;17.10;99.90
52565;DHT22;38460;53.106;7.004;2023-08-08T09:36:58;17.10;99.90
52565;DHT22;38460;53.106;7.004;2023-08-08T09:39:25;17.10;99.90
52565;DHT22;38460;53.106;7.004;2023-08-08T09:41:52;17.10;99.90
52565;DHT22;38460;53.106;7.004;2023-08-08T09:44:18;17.10;99.90
52565;DHT22;38460;53.106;7.004;2023-08-08T09:46:48;17.10;99.90
52565;DHT22;38460;53.106;7.004;2023-08-08T09:49:15;17.10;99.90
52565;DHT22;38460;53.106;7.004;2023-08-08T09:51:41;17.00;99.90
52565;DHT22;38460;53.106;7.004;2023-08-08T09:54:08;17.00;99.90
52565;DHT22;38460;53.106;7.004;2023-08-08T09:56:35;17.00;99.90
52565;DHT22;38460;53.106;7.004;2023-08-08T09:59:01;16.90;99.90
52565;DHT22;38460;53.106;7.004;2023-08-08T10:01:28;16.90;99.90
52565;DHT22;38460;53.106;7.004;2023-08-08T10:03:54;17.00;99.90
52565;DHT22;38460;53.106;7.004;2023-08-08T10:06:21;17.00;99.90
52565;DHT22;38460;53.106;7.004;2023-08-08T10:08:47;17.10;99.90
52565;DHT22;38460;53.106;7.004;2023-08-08T10:11:13;17.30;99.90
52565;DHT22;38460;53.106;7.004;2023-08-08T10:13:47;17.30;99.90
52565;DHT22;38460;53.106;7.004;2023-08-08T10:16:19;17.50;99.90
52565;DHT22;38460;53.106;7.004;2023-08-08T10:18:46;17.50;99.90
52565;DHT22;38460;53.106;7.004;2023-08-08T10:21:20;17.60;99.90
52565;DHT22;38460;53.106;7.004;2023-08-08T10:23:48;17.70;99.90
52565;DHT22;38460;53.106;7.004;2023-08-08T10:26:19;17.70;99.90
52565;DHT22;38460;53.106;7.004;2023-08-08T10:28:56;17.70;99.90
52565;DHT22;38460;53.106;7.004;2023-08-08T10:31:22;17.80;99.90
52565;DHT22;38460;53.106;7.004;2023-08-08T10:33:48;17.90;99.90
52565;DHT22;38460;53.106;7.004;2023-08-08T10:36:14;17.90;99.90
52565;DHT22;38460;53.106;7.004;2023-08-08T10:38:42;17.80;99.90
52565;DHT22;38460;53.106;7.004;2023-08-08T10:41:12;17.60;99.90
52565;DHT22;38460;53.106;7.004;2023-08-08T10:43:38;17.30;99.90
52565;DHT22;38460;53.106;7.004;2023-08-08T10:46:11;16.90;99.90
52565;DHT22;38460;53.106;7.004;2023-08-08T10:48:50;16.70;99.90
52565;DHT22;38460;53.106;7.004;2023-08-08T10:51:17;16.40;99.90
52565;DHT22;38460;53.106;7.004;2023-08-08T10:53:43;16.30;99.90
52565;DHT22;38460;53.106;7.004;2023-08-08T10:56:13;16.20;99.90
52565;DHT22;38460;53.106;7.004;2023-08-08T10:58:47;16.10;99.90
52565;DHT22;38460;53.106;7.004;2023-08-08T11:01:13;16.20;99.90
52565;DHT22;38460;53.106;7.004;2023-08-08T11:03:40;16.30;99.90
52565;DHT22;38460;53.106;7.004;2023-08-08T11:06:07;16.50;99.90
52565;DHT22;38460;53.106;7.004;2023-08-08T11:08:34;16.60;99.90
52565;DHT22;38460;53.106;7.004;2023-08-08T11:11:02;16.70;99.90
52565;DHT22;38460;53.106;7.004;2023-08-08T11:13:29;16.70;99.90
52565;DHT22;38460;53.106;7.004;2023-08-08T11:15:55;16.70;99.90
52565;DHT22;38460;53.106;7.004;2023-08-08T11:18:21;16.80;99.90
52565;DHT22;38460;53.106;7.004;2023-08-08T11:20:48;16.80;99.90
52565;DHT22;38460;53.106;7.004;2023-08-08T11:23:14;16.70;99.90
52565;DHT22;38460;53.106;7.004;2023-08-08T11:25:41;16.80;99.90
52565;DHT22;38460;53.106;7.004;2023-08-08T11:28:08;17.00;99.90
52565;DHT22;38460;53.106;7.004;2023-08-08T11:30:37;17.10;99.90
52565;DHT22;38460;53.106;7.004;2023-08-08T11:33:03;17.10;99.90
52565;DHT22;38460;53.106;7.004;2023-08-08T11:35:29;17.20;99.90
52565;DHT22;38460;53.106;7.004;2023-08-08T11:37:57;17.30;99.90
52565;DHT22;38460;53.106;7.004;2023-08-08T11:40:25;17.40;99.90
52565;DHT22;38460;53.106;7.004;2023-08-08T11:42:52;17.60;99.90
52565;DHT22;38460;53.106;7.004;2023-08-08T11:45:19;17.90;99.90
52565;DHT22;38460;53.106;7.004;2023-08-08T11:47:53;18.10;99.90
52565;DHT22;38460;53.106;7.004;2023-08-08T11:50:20;18.30;99.90
52565;DHT22;38460;53.106;7.004;2023-08-08T11:52:50;18.30;99.90
52565;DHT22;38460;53.106;7.004;2023-08-08T11:55:16;18.30;99.90
52565;DHT22;38460;53.106;7.004;2023-08-08T11:57:42;18.20;99.90
52565;DHT22;38460;53.106;7.004;2023-08-08T12:00:10;18.20;99.90
52565;DHT22;38460;53.106;7.004;2023-08-08T12:02:42;18.20;99.90
52565;DHT22;38460;53.106;7.004;2023-08-08T12:05:10;18.20;99.90
52565;DHT22;38460;53.106;7.004;2023-08-08T12:07:43;18.20;99.90
52565;DHT22;38460;53.106;7.004;2023-08-08T12:10:15;18.20;99.90
52565;DHT22;38460;53.106;7.004;2023-08-08T12:12:43;18.30;99.90
52565;DHT22;38460;53.106;7.004;2023-08-08T12:15:10;18.50;99.90
52565;DHT22;38460;53.106;7.004;2023-08-08T12:17:36;18.60;99.90
52565;DHT22;38460;53.106;7.004;2023-08-08T12:20:07;18.70;99.90
52565;DHT22;38460;53.106;7.004;2023-08-08T12:22:33;18.80;99.90
52565;DHT22;38460;53.106;7.004;2023-08-08T12:24:59;18.80;99.90
52565;DHT22;38460;53.106;7.004;2023-08-08T12:27:25;18.90;99.90
52565;DHT22;38460;53.106;7.004;2023-08-08T12:29:51;19.00;99.90
52565;DHT22;38460;53.106;7.004;2023-08-08T12:32:20;19.20;99.90
52565;DHT22;38460;53.106;7.004;2023-08-08T12:34:45;19.20;99.90
52565;DHT22;38460;53.106;7.004;2023-08-08T12:37:11;19.30;99.90
52565;DHT22;38460;53.106;7.004;2023-08-08T12:39:37;19.40;99.90
52565;DHT22;38460;53.106;7.004;2023-08-08T12:42:03;19.50;99.90
52565;DHT22;38460;53.106;7.004;2023-08-08T12:44:28;19.50;99.90
52565;DHT22;38460;53.106;7.004;2023-08-08T12:46:54;19.50;99.90
52565;DHT22;38460;53.106;7.004;2023-08-08T12:49:20;19.40;99.90
52565;DHT22;38460;53.106;7.004;2023-08-08T12:51:46;19.30;99.90
52565;DHT22;38460;53.106;7.004;2023-08-08T12:54:12;19.20;99.90
52565;DHT22;38460;53.106;7.004;2023-08-08T12:56:38;19.30;99.90
52565;DHT22;38460;53.106;7.004;2023-08-08T12:59:04;19.20;99.90
52565;DHT22;38460;53.106;7.004;2023-08-08T13:01:30;19.10;99.90
52565;DHT22;38460;53.106;7.004;2023-08-08T13:03:56;19.00;99.90
52565;DHT22;38460;53.106;7.004;2023-08-08T13:06:22;18.80;99.90
52565;DHT22;38460;53.106;7.004;2023-08-08T13:08:48;18.70;99.90
52565;DHT22;38460;53.106;7.004;2023-08-08T13:11:14;18.70;99.90
52565;DHT22;38460;53.106;7.004;2023-08-08T13:13:39;18.80;99.90
52565;DHT22;38460;53.106;7.004;2023-08-08T13:16:05;19.00;99.90
52565;DHT22;38460;53.106;7.004;2023-08-08T13:18:31;19.00;99.90
52565;DHT22;38460;53.106;7.004;2023-08-08T13:20:56;19.10;99.90
52565;DHT22;38460;53.106;7.004;2023-08-08T13:23:22;19.10;99.90
52565;DHT22;38460;53.106;7.004;2023-08-08T13:25:49;19.30;99.90
52565;DHT22;38460;53.106;7.004;2023-08-08T13:28:15;19.40;99.90
52565;DHT22;38460;53.106;7.004;2023-08-08T13:30:41;19.30;99.90
52565;DHT22;38460;53.106;7.004;2023-08-08T13:33:08;19.20;99.90
52565;DHT22;38460;53.106;7.004;2023-08-08T13:35:35;19.30;99.90
52565;DHT22;38460;53.106;7.004;2023-08-08T13:38:01;19.40;99.90
52565;DHT22;38460;53.106;7.004;2023-08-08T13:40:27;19.60;99.90
52565;DHT22;38460;53.106;7.004;2023-08-08T13:42:52;19.80;99.90
52565;DHT22;38460;53.106;7.004;2023-08-08T13:45:19;19.90;99.90
52565;DHT22;38460;53.106;7.004;2023-08-08T13:47:46;20.00;99.90
52565;DHT22;38460;53.106;7.004;2023-08-08T13:50:12;20.10;99.90
52565;DHT22;38460;53.106;7.004;2023-08-08T13:52:39;20.20;99.90
52565;DHT22;38460;53.106;7.004;2023-08-08T13:55:06;20.00;99.90
52565;DHT22;38460;53.106;7.004;2023-08-08T13:57:32;19.80;99.90
52565;DHT22;38460;53.106;7.004;2023-08-08T13:59:58;19.80;99.90
52565;DHT22;38460;53.106;7.004;2023-08-08T14:02:23;19.90;99.90
52565;DHT22;38460;53.106;7.004;2023-08-08T14:04:49;20.00;99.90
52565;DHT22;38460;53.106;7.004;2023-08-08T14:07:15;20.10;99.90
52565;DHT22;38460;53.106;7.004;2023-08-08T14:09:41;20.30;99.90
52565;DHT22;38460;53.106;7.004;2023-08-08T14:12:07;20.30;99.90
52565;DHT22;38460;53.106;7.004;2023-08-08T14:14:32;20.10;99.90
52565;DHT22;38460;53.106;7.004;2023-08-08T14:16:58;19.80;99.90
52565;DHT22;38460;53.106;7.004;2023-08-08T14:19:24;19.60;99.90
52565;DHT22;38460;53.106;7.004;2023-08-08T14:21:50;19.60;99.90
52565;DHT22;38460;53.106;7.004;2023-08-08T14:24:15;19.30;99.90
52565;DHT22;38460;53.106;7.004;2023-08-08T14:26:41;19.10;99.90
52565;DHT22;38460;53.106;7.004;2023-08-08T14:29:07;19.00;99.90
52565;DHT22;38460;53.106;7.004;2023-08-08T14:31:32;19.10;99.90
52565;DHT22;38460;53.106;7.004;2023-08-08T14:33:58;19.00;99.90
52565;DHT22;38460;53.106;7.004;2023-08-08T14:36:24;19.00;99.90
52565;DHT22;38460;53.106;7.004;2023-08-08T14:38:49;18.90;99.90
52565;DHT22;38460;53.106;7.004;2023-08-08T14:41:15;18.80;99.90
52565;DHT22;38460;53.106;7.004;2023-08-08T14:43:41;18.70;99.90
52565;DHT22;38460;53.106;7.004;2023-08-08T14:46:07;18.80;99.90
52565;DHT22;38460;53.106;7.004;2023-08-08T14:48:32;19.00;99.90
52565;DHT22;38460;53.106;7.004;2023-08-08T14:51:01;19.10;99.90
52565;DHT22;38460;53.106;7.004;2023-08-08T14:53:27;19.00;99.90
52565;DHT22;38460;53.106;7.004;2023-08-08T14:55:52;18.90;99.90
52565;DHT22;38460;53.106;7.004;2023-08-08T14:58:18;18.70;99.90
52565;DHT22;38460;53.106;7.004;2023-08-08T15:00:44;18.60;99.90
52565;DHT22;38460;53.106;7.004;2023-08-08T15:03:10;18.60;99.90
52565;DHT22;38460;53.106;7.004;2023-08-08T15:05:36;19.00;99.90
52565;DHT22;38460;53.106;7.004;2023-08-08T15:08:02;19.30;99.90
52565;DHT22;38460;53.106;7.004;2023-08-08T15:10:28;19.50;99.90
52565;DHT22;38460;53.106;7.004;2023-08-08T15:12:54;19.80;99.90
52565;DHT22;38460;53.106;7.004;2023-08-08T15:15:19;19.90;99.90
52565;DHT22;38460;53.106;7.004;2023-08-08T15:17:48;20.20;99.90
52565;DHT22;38460;53.106;7.004;2023-08-08T15:20:14;20.30;99.90
52565;DHT22;38460;53.106;7.004;2023-08-08T15:22:40;20.30;99.90
52565;DHT22;38460;53.106;7.004;2023-08-08T15:25:06;20.30;99.90
52565;DHT22;38460;53.106;7.004;2023-08-08T15:27:32;20.10;99.90